METAR Data
IDs: Format: Raw Decoded Include TAF

Data at: 1340 UTC 14 Dec 2019

PABI 141253Z AUTO 10022G26KT 10SM CLR M07/M10 A2972 RMK AO2 PK WND 10030/1241 SLP095 T10671100 TSNO
PABI 141153Z AUTO 11022G32KT 10SM CLR M07/M10 A2972 RMK AO2 PK WND 10032/1153 SLP095 T10671100 11056 21067 51006 TSNO
PABI 141053Z AUTO 10020G26KT 10SM CLR M07/M10 A2971 RMK AO2 PK WND 11027/1036 SLP094 T10671100 TSNO
PABI 140953Z AUTO 11016G23KT 10SM CLR M06/M10 A2971 RMK AO2 PK WND 11026/0924 SLP091 T10611100 TSNO
PABI 140853Z AUTO 11020G28KT 10SM CLR M06/M09 A2970 RMK AO2 PK WND 11028/0843 SLP087 T10611094 410441061 53005 TSNO
PABI 140753Z AUTO 11019G25KT 10SM CLR M06/M09 A2969 RMK AO2 PK WND 11028/0702 SLP085 T10611094 TSNO
PABI 140653Z AUTO 11022KT 10SM CLR M06/M09 A2968 RMK AO2 PK WND 10033/0625 SLP081 T10561094 TSNO
PABI 140553Z 10020KT 10SM FEW090 FEW200 M06/M09 A2968 RMK AO2 PK WND 11027/0525 SLP081 T10561094 11050 21056 51006
PABI 140453Z 11020G26KT 10SM FEW090 FEW200 M06/M09 A2968 RMK AO2 PK WND 10030/0440 SLP080 T10561089
PABI 140353Z 10021G26KT 10SM FEW090 FEW200 M06/M09 A2967 RMK AO2 PK WND 10029/0341 SLP076 T10561089
PABI 140253Z 11021G28KT 10SM FEW100 FEW180 M06/M09 A2966 RMK AO2 PK WND 10033/0158 SLP074 T10561089 53015
PABI 140153Z 10018G28KT 10SM FEW100 FEW180 M06/M09 A2965 RMK AO2 PK WND 10032/0055 SLP069 ACSL DSNT SW T10561089
PABI 140053Z 11022G33KT 10SM FEW100 FEW180 M05/M09 A2963 RMK AO2 PK WND 11033/0045 SLP062 ACSL DSNT SW T10501089
PABI 132353Z 10024G32KT 10SM FEW100 FEW180 M05/M09 A2962 RMK AO2 PK WND 11032/2353 SLP058 T10501089 11044 21050 53019
PABI 132253Z 11023G29KT 10SM FEW100 FEW180 M04/M09 A2960 RMK AO2 PK WND 10034/2224 SLP052 T10441089
PABI 132153Z 11024G31KT 10SM FEW090 M04/M09 A2958 RMK AO2 PK WND 10032/2130 SLP045 T10441089
PABI 132053Z 11024G30KT 10SM FEW090 M04/M09 A2956 RMK AO2 PK WND 11032/2005 SLP039 T10441089 51020
PABI 131953Z 11024G30KT 10SM FEW110 M04/M09 A2954 RMK AO2 PK WND 11035/1857 SLP031 T10441089 $
PABI 131853Z 11025G32KT 10SM FEW110 M04/M09 A2952 RMK AO2 PK WND 10035/1801 SLP025 T10441089 $
PABI 131753Z 11026G37KT 10SM FEW110 M04/M09 A2950 RMK AO2 PK WND 11037/1715 SLP017 T10441089 11044 21044 53021 $
PABI 131653Z 11025G36KT 10SM FEW110 M04/M09 A2948
PABI 131553Z 10030G38KT 10SM FEW110 M04/M09 A2945 RMK AO2 PK WND 10042/1510 SLP001 T10441089 $
PABI 131453Z AUTO 10034G42KT 10SM CLR M04/M09 A2943 RMK AO2 PK WND 11043/1428 SLP995 T10441089 51024 TSNO $
PABI 131353Z AUTO 11030G40KT 10SM CLR M04/M09 A2942 RMK AO2 PK WND 10043/1259 SLP988 T10441089 TSNO $
PABI 131253Z AUTO 10030G39KT 10SM CLR M04/M08 A2940 RMK AO2 PK WND 10044/1237 SLP981 T10441083 TSNO $
PABI 131153Z AUTO 11029G42KT 10SM CLR M04/M08 A2936 RMK AO2 PK WND 11042/1125 SLP970 T10441083 11033 21044 52013 TSNO $
PABI 131053Z AUTO 11030G40KT 10SM CLR M04/M08 A2935 RMK AO2 PK WND 11040/1050 SLP965 T10441083 TSNO $
PABI 130953Z AUTO 10026G36KT 10SM CLR M04/M08 A2933 RMK AO2 PK WND 10041/0936 SLP959 T10441083 TSNO $
PABI 130853Z AUTO 10029G36KT 10SM CLR M04/M08 A2932 RMK AO2 PK WND 10042/0805 SLP955 T10441083 410221044 53006 TSNO $
PABI 130753Z AUTO 11029G38KT 10SM CLR M04/M08 A2931 RMK AO2 PK WND 11042/0735 SLP950 T10391078 TSNO $
PABI 130653Z AUTO 10026G34KT 10SM CLR M04/M07 A2931 RMK AO2 PK WND 11039/0640 SLP950 T10391072 TSNO $
PABI 130625Z 10027G35KT 10SM SCT018 M04/M07 A2930 RMK AO2 PK WND 10039/0609 T10391072 $
PABI 130553Z 11022G38KT 10SM OVC019 M03/M07 A2930 RMK AO2 PK WND 11039/0531 SLP948 T10331072 11033 21039 56010 $
PABI 130453Z 10023G33KT 10SM OVC021 M03/M07 A2931 RMK AO2 PK WND 11035/0402 SLP950 T10331067 $
PABI 130353Z 11024G36KT 10SM BKN021 M03/M07 A2932 RMK AO2 PK WND 10041/0321 SLP954 T10331067 $
PABI 130253Z 11024G32KT 10SM BKN022 M03/M07 A2933 RMK AO2 PK WND 10033/0202 SLP958 T10331067 56013 $
PABI 130200Z 10025G32KT 10SM BKN028 M04/M07 A2933 RMK AO2 PK WND 10032/0159 T10391067 $
PABI 130153Z 10021G29KT 10SM FEW025 M04/M07 A2934 RMK AO2 PK WND 10029/0100 SLP961 T10391067 $